sensor_id;sensor_type;location;lat;lon;timestamp;P1;durP1;ratioP1;P2;durP2;ratioP2
31368;SDS011;18004;48.416;10.066;2022-12-20T00:02:11;44.67;;;17.67;;
31368;SDS011;18004;48.416;10.066;2022-12-20T00:04:37;36.60;;;17.73;;
31368;SDS011;18004;48.416;10.066;2022-12-20T00:07:02;35.55;;;18.00;;
31368;SDS011;18004;48.416;10.066;2022-12-20T00:09:28;34.42;;;16.83;;
31368;SDS011;18004;48.416;10.066;2022-12-20T00:11:54;41.47;;;17.35;;
31368;SDS011;18004;48.416;10.066;2022-12-20T00:14:19;41.30;;;17.60;;
31368;SDS011;18004;48.416;10.066;2022-12-20T00:16:45;38.70;;;17.83;;
31368;SDS011;18004;48.416;10.066;2022-12-20T00:19:11;29.38;;;17.35;;
31368;SDS011;18004;48.416;10.066;2022-12-20T00:21:37;39.70;;;17.83;;
31368;SDS011;18004;48.416;10.066;2022-12-20T00:24:03;37.00;;;17.23;;
31368;SDS011;18004;48.416;10.066;2022-12-20T00:26:31;36.50;;;17.02;;
31368;SDS011;18004;48.416;10.066;2022-12-20T00:28:58;37.58;;;18.55;;
31368;SDS011;18004;48.416;10.066;2022-12-20T00:31:26;41.03;;;17.13;;
31368;SDS011;18004;48.416;10.066;2022-12-20T00:33:53;35.00;;;17.38;;
31368;SDS011;18004;48.416;10.066;2022-12-20T00:36:21;36.17;;;17.52;;
31368;SDS011;18004;48.416;10.066;2022-12-20T00:38:49;41.85;;;17.98;;
31368;SDS011;18004;48.416;10.066;2022-12-20T00:41:17;32.72;;;16.02;;
31368;SDS011;18004;48.416;10.066;2022-12-20T00:43:45;35.88;;;17.25;;
31368;SDS011;18004;48.416;10.066;2022-12-20T00:46:14;30.30;;;16.42;;
31368;SDS011;18004;48.416;10.066;2022-12-20T00:48:41;37.55;;;17.38;;
31368;SDS011;18004;48.416;10.066;2022-12-20T00:51:12;38.17;;;18.13;;
31368;SDS011;18004;48.416;10.066;2022-12-20T00:53:40;38.13;;;18.00;;
31368;SDS011;18004;48.416;10.066;2022-12-20T00:56:06;47.55;;;18.65;;
31368;SDS011;18004;48.416;10.066;2022-12-20T00:58:33;33.38;;;16.58;;
31368;SDS011;18004;48.416;10.066;2022-12-20T01:01:01;40.13;;;18.05;;
31368;SDS011;18004;48.416;10.066;2022-12-20T01:03:27;43.70;;;19.65;;
31368;SDS011;18004;48.416;10.066;2022-12-20T01:06:02;39.53;;;18.15;;
31368;SDS011;18004;48.416;10.066;2022-12-20T01:08:28;38.55;;;16.95;;
31368;SDS011;18004;48.416;10.066;2022-12-20T01:11:02;37.45;;;15.70;;
31368;SDS011;18004;48.416;10.066;2022-12-20T01:13:28;35.40;;;17.42;;
31368;SDS011;18004;48.416;10.066;2022-12-20T01:15:55;34.03;;;16.30;;
31368;SDS011;18004;48.416;10.066;2022-12-20T01:18:27;34.85;;;16.77;;
31368;SDS011;18004;48.416;10.066;2022-12-20T01:20:59;37.78;;;16.33;;
31368;SDS011;18004;48.416;10.066;2022-12-20T01:23:29;33.35;;;16.75;;
31368;SDS011;18004;48.416;10.066;2022-12-20T01:26:02;34.40;;;18.15;;
31368;SDS011;18004;48.416;10.066;2022-12-20T01:28:29;33.17;;;15.40;;
31368;SDS011;18004;48.416;10.066;2022-12-20T01:30:55;39.22;;;16.55;;
31368;SDS011;18004;48.416;10.066;2022-12-20T01:33:21;35.00;;;18.48;;
31368;SDS011;18004;48.416;10.066;2022-12-20T01:35:58;36.15;;;18.13;;
31368;SDS011;18004;48.416;10.066;2022-12-20T01:38:28;37.80;;;17.80;;
31368;SDS011;18004;48.416;10.066;2022-12-20T01:40:55;44.33;;;20.40;;
31368;SDS011;18004;48.416;10.066;2022-12-20T01:43:22;35.78;;;18.80;;
31368;SDS011;18004;48.416;10.066;2022-12-20T01:45:49;41.28;;;19.95;;
31368;SDS011;18004;48.416;10.066;2022-12-20T01:48:22;41.53;;;19.92;;
31368;SDS011;18004;48.416;10.066;2022-12-20T01:50:50;38.15;;;20.00;;
31368;SDS011;18004;48.416;10.066;2022-12-20T01:53:17;39.58;;;18.67;;
31368;SDS011;18004;48.416;10.066;2022-12-20T01:55:46;36.40;;;18.52;;
31368;SDS011;18004;48.416;10.066;2022-12-20T01:58:13;46.38;;;19.40;;
31368;SDS011;18004;48.416;10.066;2022-12-20T02:00:41;35.58;;;17.90;;
31368;SDS011;18004;48.416;10.066;2022-12-20T02:03:08;44.15;;;18.10;;
31368;SDS011;18004;48.416;10.066;2022-12-20T02:05:38;35.25;;;18.65;;
31368;SDS011;18004;48.416;10.066;2022-12-20T02:08:06;43.35;;;18.38;;
31368;SDS011;18004;48.416;10.066;2022-12-20T02:10:42;39.53;;;18.85;;
31368;SDS011;18004;48.416;10.066;2022-12-20T02:16:49;41.95;;;17.55;;
31368;SDS011;18004;48.416;10.066;2022-12-20T02:22:21;36.30;;;18.65;;
31368;SDS011;18004;48.416;10.066;2022-12-20T02:27:53;36.10;;;18.67;;
31368;SDS011;18004;48.416;10.066;2022-12-20T02:30:34;36.78;;;16.52;;
31368;SDS011;18004;48.416;10.066;2022-12-20T02:33:06;31.42;;;16.48;;
31368;SDS011;18004;48.416;10.066;2022-12-20T02:35:35;38.55;;;17.75;;
31368;SDS011;18004;48.416;10.066;2022-12-20T02:38:26;37.40;;;18.20;;
31368;SDS011;18004;48.416;10.066;2022-12-20T02:43:38;43.00;;;18.60;;
31368;SDS011;18004;48.416;10.066;2022-12-20T02:46:24;29.90;;;16.27;;
31368;SDS011;18004;48.416;10.066;2022-12-20T02:48:51;39.08;;;18.08;;
31368;SDS011;18004;48.416;10.066;2022-12-20T02:51:20;29.58;;;17.67;;
31368;SDS011;18004;48.416;10.066;2022-12-20T02:53:50;31.70;;;16.90;;
31368;SDS011;18004;48.416;10.066;2022-12-20T02:58:56;34.47;;;17.75;;
31368;SDS011;18004;48.416;10.066;2022-12-20T03:01:28;40.67;;;18.45;;
31368;SDS011;18004;48.416;10.066;2022-12-20T03:03:57;43.30;;;18.75;;
31368;SDS011;18004;48.416;10.066;2022-12-20T03:06:25;34.33;;;17.58;;
31368;SDS011;18004;48.416;10.066;2022-12-20T03:08:51;36.60;;;20.10;;
31368;SDS011;18004;48.416;10.066;2022-12-20T03:11:17;40.58;;;20.15;;
31368;SDS011;18004;48.416;10.066;2022-12-20T03:13:44;49.45;;;20.35;;
31368;SDS011;18004;48.416;10.066;2022-12-20T03:16:10;43.97;;;18.45;;
31368;SDS011;18004;48.416;10.066;2022-12-20T03:18:36;33.83;;;17.83;;
31368;SDS011;18004;48.416;10.066;2022-12-20T03:21:02;40.53;;;20.38;;
31368;SDS011;18004;48.416;10.066;2022-12-20T03:23:28;40.70;;;19.13;;
31368;SDS011;18004;48.416;10.066;2022-12-20T03:25:54;37.10;;;16.25;;
31368;SDS011;18004;48.416;10.066;2022-12-20T03:28:20;42.92;;;19.00;;
31368;SDS011;18004;48.416;10.066;2022-12-20T03:30:46;37.75;;;18.02;;
31368;SDS011;18004;48.416;10.066;2022-12-20T03:33:12;39.67;;;18.65;;
31368;SDS011;18004;48.416;10.066;2022-12-20T03:35:38;42.35;;;17.58;;
31368;SDS011;18004;48.416;10.066;2022-12-20T03:38:04;36.45;;;17.58;;
31368;SDS011;18004;48.416;10.066;2022-12-20T03:40:30;34.47;;;17.30;;
31368;SDS011;18004;48.416;10.066;2022-12-20T03:42:55;44.20;;;17.42;;
31368;SDS011;18004;48.416;10.066;2022-12-20T03:45:21;36.50;;;14.98;;
31368;SDS011;18004;48.416;10.066;2022-12-20T03:47:47;36.45;;;16.02;;
31368;SDS011;18004;48.416;10.066;2022-12-20T03:50:13;34.65;;;17.67;;
31368;SDS011;18004;48.416;10.066;2022-12-20T03:52:39;35.53;;;16.50;;
31368;SDS011;18004;48.416;10.066;2022-12-20T03:55:05;36.17;;;17.73;;
31368;SDS011;18004;48.416;10.066;2022-12-20T03:57:31;38.88;;;18.27;;
31368;SDS011;18004;48.416;10.066;2022-12-20T03:59:57;38.45;;;17.38;;
31368;SDS011;18004;48.416;10.066;2022-12-20T04:02:23;33.72;;;18.60;;
31368;SDS011;18004;48.416;10.066;2022-12-20T04:04:49;45.83;;;22.23;;
31368;SDS011;18004;48.416;10.066;2022-12-20T04:07:15;35.13;;;18.02;;
31368;SDS011;18004;48.416;10.066;2022-12-20T04:09:41;36.75;;;20.17;;
31368;SDS011;18004;48.416;10.066;2022-12-20T04:12:06;45.88;;;26.63;;
31368;SDS011;18004;48.416;10.066;2022-12-20T04:14:32;39.45;;;18.45;;
31368;SDS011;18004;48.416;10.066;2022-12-20T04:16:58;34.53;;;17.88;;
31368;SDS011;18004;48.416;10.066;2022-12-20T04:19:27;33.63;;;18.15;;
31368;SDS011;18004;48.416;10.066;2022-12-20T04:21:52;43.03;;;18.70;;
31368;SDS011;18004;48.416;10.066;2022-12-20T04:24:20;29.77;;;17.17;;
31368;SDS011;18004;48.416;10.066;2022-12-20T04:26:46;34.42;;;17.05;;
31368;SDS011;18004;48.416;10.066;2022-12-20T04:29:14;38.95;;;18.67;;
31368;SDS011;18004;48.416;10.066;2022-12-20T04:31:47;29.33;;;16.17;;
31368;SDS011;18004;48.416;10.066;2022-12-20T04:34:13;32.88;;;17.33;;
31368;SDS011;18004;48.416;10.066;2022-12-20T04:36:39;32.83;;;17.52;;
31368;SDS011;18004;48.416;10.066;2022-12-20T04:39:04;33.70;;;17.30;;
31368;SDS011;18004;48.416;10.066;2022-12-20T04:41:30;44.90;;;21.17;;
31368;SDS011;18004;48.416;10.066;2022-12-20T04:43:56;39.10;;;20.63;;
31368;SDS011;18004;48.416;10.066;2022-12-20T04:46:25;35.30;;;19.13;;
31368;SDS011;18004;48.416;10.066;2022-12-20T04:48:52;35.95;;;18.77;;
31368;SDS011;18004;48.416;10.066;2022-12-20T04:51:18;45.60;;;20.25;;
31368;SDS011;18004;48.416;10.066;2022-12-20T04:53:44;34.17;;;17.73;;
31368;SDS011;18004;48.416;10.066;2022-12-20T04:56:13;34.67;;;18.48;;
31368;SDS011;18004;48.416;10.066;2022-12-20T04:58:41;35.83;;;17.02;;
31368;SDS011;18004;48.416;10.066;2022-12-20T05:01:06;38.63;;;18.35;;
31368;SDS011;18004;48.416;10.066;2022-12-20T05:03:32;32.60;;;16.92;;
31368;SDS011;18004;48.416;10.066;2022-12-20T05:05:58;32.53;;;17.45;;
31368;SDS011;18004;48.416;10.066;2022-12-20T05:08:24;36.78;;;16.50;;
31368;SDS011;18004;48.416;10.066;2022-12-20T05:10:50;27.67;;;15.52;;
31368;SDS011;18004;48.416;10.066;2022-12-20T05:13:16;38.28;;;17.13;;
31368;SDS011;18004;48.416;10.066;2022-12-20T05:15:42;34.38;;;16.30;;
31368;SDS011;18004;48.416;10.066;2022-12-20T05:18:08;38.97;;;16.33;;
31368;SDS011;18004;48.416;10.066;2022-12-20T05:20:33;29.77;;;16.05;;
31368;SDS011;18004;48.416;10.066;2022-12-20T05:22:59;40.40;;;18.05;;
31368;SDS011;18004;48.416;10.066;2022-12-20T05:25:45;30.02;;;16.60;;
31368;SDS011;18004;48.416;10.066;2022-12-20T05:28:32;32.45;;;16.67;;
31368;SDS011;18004;48.416;10.066;2022-12-20T05:30:59;34.72;;;16.20;;
31368;SDS011;18004;48.416;10.066;2022-12-20T05:33:26;26.00;;;15.32;;
31368;SDS011;18004;48.416;10.066;2022-12-20T05:35:52;32.70;;;16.58;;
31368;SDS011;18004;48.416;10.066;2022-12-20T05:38:18;29.17;;;16.35;;
31368;SDS011;18004;48.416;10.066;2022-12-20T05:40:46;28.85;;;16.55;;
31368;SDS011;18004;48.416;10.066;2022-12-20T05:43:12;33.28;;;16.67;;
31368;SDS011;18004;48.416;10.066;2022-12-20T05:45:39;40.67;;;15.90;;
31368;SDS011;18004;48.416;10.066;2022-12-20T05:48:09;39.90;;;16.08;;
31368;SDS011;18004;48.416;10.066;2022-12-20T05:50:35;34.38;;;16.65;;
31368;SDS011;18004;48.416;10.066;2022-12-20T05:53:01;34.55;;;15.88;;
31368;SDS011;18004;48.416;10.066;2022-12-20T05:55:26;40.90;;;16.88;;
31368;SDS011;18004;48.416;10.066;2022-12-20T05:57:52;34.42;;;15.43;;
31368;SDS011;18004;48.416;10.066;2022-12-20T06:00:18;35.40;;;16.52;;
31368;SDS011;18004;48.416;10.066;2022-12-20T06:02:44;32.50;;;17.02;;
31368;SDS011;18004;48.416;10.066;2022-12-20T06:05:10;29.67;;;15.63;;
31368;SDS011;18004;48.416;10.066;2022-12-20T06:07:35;32.53;;;17.30;;
31368;SDS011;18004;48.416;10.066;2022-12-20T06:10:01;30.27;;;16.63;;
31368;SDS011;18004;48.416;10.066;2022-12-20T06:12:27;34.55;;;15.90;;
31368;SDS011;18004;48.416;10.066;2022-12-20T06:14:53;34.30;;;17.90;;
31368;SDS011;18004;48.416;10.066;2022-12-20T06:17:19;30.08;;;15.27;;
31368;SDS011;18004;48.416;10.066;2022-12-20T06:19:46;30.98;;;17.10;;
31368;SDS011;18004;48.416;10.066;2022-12-20T06:22:12;33.72;;;15.95;;
31368;SDS011;18004;48.416;10.066;2022-12-20T06:24:37;32.65;;;15.73;;
31368;SDS011;18004;48.416;10.066;2022-12-20T06:27:03;36.97;;;16.30;;
31368;SDS011;18004;48.416;10.066;2022-12-20T06:29:31;36.53;;;17.30;;
31368;SDS011;18004;48.416;10.066;2022-12-20T06:31:57;35.33;;;16.70;;
31368;SDS011;18004;48.416;10.066;2022-12-20T06:34:23;31.52;;;16.30;;
31368;SDS011;18004;48.416;10.066;2022-12-20T06:36:49;34.45;;;18.00;;
31368;SDS011;18004;48.416;10.066;2022-12-20T06:39:15;33.17;;;17.17;;
31368;SDS011;18004;48.416;10.066;2022-12-20T06:41:41;36.08;;;16.70;;
31368;SDS011;18004;48.416;10.066;2022-12-20T06:44:07;28.67;;;15.48;;
31368;SDS011;18004;48.416;10.066;2022-12-20T06:46:33;35.95;;;16.77;;
31368;SDS011;18004;48.416;10.066;2022-12-20T06:48:59;32.90;;;16.08;;
31368;SDS011;18004;48.416;10.066;2022-12-20T06:51:25;33.35;;;16.88;;
31368;SDS011;18004;48.416;10.066;2022-12-20T06:53:51;35.75;;;17.30;;
31368;SDS011;18004;48.416;10.066;2022-12-20T06:56:16;41.40;;;18.45;;
31368;SDS011;18004;48.416;10.066;2022-12-20T06:58:43;27.92;;;16.75;;
31368;SDS011;18004;48.416;10.066;2022-12-20T07:01:09;31.73;;;17.45;;
31368;SDS011;18004;48.416;10.066;2022-12-20T07:03:35;37.55;;;16.40;;
31368;SDS011;18004;48.416;10.066;2022-12-20T07:06:01;34.80;;;17.17;;
31368;SDS011;18004;48.416;10.066;2022-12-20T07:08:27;40.08;;;19.08;;
31368;SDS011;18004;48.416;10.066;2022-12-20T07:10:52;35.30;;;19.38;;
31368;SDS011;18004;48.416;10.066;2022-12-20T07:13:19;34.92;;;18.55;;
31368;SDS011;18004;48.416;10.066;2022-12-20T07:15:44;32.20;;;18.60;;
31368;SDS011;18004;48.416;10.066;2022-12-20T07:18:10;40.92;;;18.73;;
31368;SDS011;18004;48.416;10.066;2022-12-20T07:20:36;29.63;;;17.50;;
31368;SDS011;18004;48.416;10.066;2022-12-20T07:23:02;33.38;;;17.98;;
31368;SDS011;18004;48.416;10.066;2022-12-20T07:25:28;32.67;;;17.65;;
31368;SDS011;18004;48.416;10.066;2022-12-20T07:27:54;40.08;;;17.45;;
31368;SDS011;18004;48.416;10.066;2022-12-20T07:30:20;34.03;;;19.33;;
31368;SDS011;18004;48.416;10.066;2022-12-20T07:32:46;60.13;;;28.27;;
31368;SDS011;18004;48.416;10.066;2022-12-20T07:35:12;39.90;;;21.92;;
31368;SDS011;18004;48.416;10.066;2022-12-20T07:37:39;61.45;;;31.40;;
31368;SDS011;18004;48.416;10.066;2022-12-20T07:40:05;70.32;;;33.80;;
31368;SDS011;18004;48.416;10.066;2022-12-20T07:42:32;39.92;;;20.35;;
31368;SDS011;18004;48.416;10.066;2022-12-20T07:44:58;34.55;;;18.70;;
31368;SDS011;18004;48.416;10.066;2022-12-20T07:47:23;35.88;;;16.95;;
31368;SDS011;18004;48.416;10.066;2022-12-20T07:49:49;30.60;;;17.63;;
31368;SDS011;18004;48.416;10.066;2022-12-20T07:52:15;34.85;;;19.27;;
31368;SDS011;18004;48.416;10.066;2022-12-20T07:54:55;42.75;;;19.35;;
31368;SDS011;18004;48.416;10.066;2022-12-20T07:57:31;33.17;;;17.98;;
31368;SDS011;18004;48.416;10.066;2022-12-20T08:00:06;27.67;;;14.93;;
31368;SDS011;18004;48.416;10.066;2022-12-20T08:02:34;26.73;;;13.88;;
31368;SDS011;18004;48.416;10.066;2022-12-20T08:05:06;29.00;;;14.52;;
31368;SDS011;18004;48.416;10.066;2022-12-20T08:07:33;27.38;;;15.63;;
31368;SDS011;18004;48.416;10.066;2022-12-20T08:10:01;30.85;;;15.95;;
31368;SDS011;18004;48.416;10.066;2022-12-20T08:12:28;36.25;;;16.15;;
31368;SDS011;18004;48.416;10.066;2022-12-20T08:14:56;32.55;;;16.77;;
31368;SDS011;18004;48.416;10.066;2022-12-20T08:17:22;32.63;;;15.00;;
31368;SDS011;18004;48.416;10.066;2022-12-20T08:19:48;39.17;;;13.40;;
31368;SDS011;18004;48.416;10.066;2022-12-20T08:22:19;20.20;;;12.45;;
31368;SDS011;18004;48.416;10.066;2022-12-20T08:24:45;23.92;;;13.48;;
31368;SDS011;18004;48.416;10.066;2022-12-20T08:27:10;23.25;;;12.13;;
31368;SDS011;18004;48.416;10.066;2022-12-20T08:29:36;23.98;;;12.20;;
31368;SDS011;18004;48.416;10.066;2022-12-20T08:32:02;29.13;;;14.20;;
31368;SDS011;18004;48.416;10.066;2022-12-20T08:34:28;27.80;;;13.82;;
31368;SDS011;18004;48.416;10.066;2022-12-20T08:36:54;33.10;;;13.30;;
31368;SDS011;18004;48.416;10.066;2022-12-20T08:39:20;21.67;;;12.38;;
31368;SDS011;18004;48.416;10.066;2022-12-20T08:41:46;26.15;;;13.45;;
31368;SDS011;18004;48.416;10.066;2022-12-20T08:44:12;25.17;;;13.38;;
31368;SDS011;18004;48.416;10.066;2022-12-20T08:46:38;24.42;;;13.70;;
31368;SDS011;18004;48.416;10.066;2022-12-20T08:49:04;24.35;;;12.88;;
31368;SDS011;18004;48.416;10.066;2022-12-20T08:51:30;28.15;;;13.88;;
31368;SDS011;18004;48.416;10.066;2022-12-20T08:53:56;19.17;;;12.40;;
31368;SDS011;18004;48.416;10.066;2022-12-20T08:56:22;25.70;;;14.80;;
31368;SDS011;18004;48.416;10.066;2022-12-20T08:58:48;26.15;;;13.85;;
31368;SDS011;18004;48.416;10.066;2022-12-20T09:01:15;32.10;;;15.77;;
31368;SDS011;18004;48.416;10.066;2022-12-20T09:03:43;30.05;;;13.35;;
31368;SDS011;18004;48.416;10.066;2022-12-20T09:06:11;23.65;;;15.52;;
31368;SDS011;18004;48.416;10.066;2022-12-20T09:08:42;25.05;;;13.73;;
31368;SDS011;18004;48.416;10.066;2022-12-20T09:11:12;28.23;;;15.13;;
31368;SDS011;18004;48.416;10.066;2022-12-20T09:13:41;28.55;;;13.27;;
31368;SDS011;18004;48.416;10.066;2022-12-20T09:16:08;23.65;;;14.27;;
31368;SDS011;18004;48.416;10.066;2022-12-20T09:18:35;24.48;;;14.20;;
31368;SDS011;18004;48.416;10.066;2022-12-20T09:21:02;22.15;;;13.77;;
31368;SDS011;18004;48.416;10.066;2022-12-20T09:23:30;22.55;;;12.25;;
31368;SDS011;18004;48.416;10.066;2022-12-20T09:26:29;28.92;;;13.32;;
31368;SDS011;18004;48.416;10.066;2022-12-20T09:28:49;29.42;;;13.85;;
31368;SDS011;18004;48.416;10.066;2022-12-20T09:31:16;28.40;;;13.48;;
31368;SDS011;18004;48.416;10.066;2022-12-20T09:33:44;22.77;;;12.20;;
31368;SDS011;18004;48.416;10.066;2022-12-20T09:36:14;23.42;;;12.38;;
31368;SDS011;18004;48.416;10.066;2022-12-20T09:38:42;24.48;;;13.82;;
31368;SDS011;18004;48.416;10.066;2022-12-20T09:41:15;25.15;;;13.20;;
31368;SDS011;18004;48.416;10.066;2022-12-20T09:44:24;29.60;;;13.30;;
31368;SDS011;18004;48.416;10.066;2022-12-20T09:47:07;22.17;;;12.27;;
31368;SDS011;18004;48.416;10.066;2022-12-20T09:49:40;32.10;;;15.63;;
31368;SDS011;18004;48.416;10.066;2022-12-20T09:55:12;34.33;;;14.32;;
31368;SDS011;18004;48.416;10.066;2022-12-20T09:58:03;31.38;;;13.60;;
31368;SDS011;18004;48.416;10.066;2022-12-20T10:00:43;27.25;;;15.15;;
31368;SDS011;18004;48.416;10.066;2022-12-20T10:06:30;36.25;;;16.38;;
31368;SDS011;18004;48.416;10.066;2022-12-20T10:12:55;37.90;;;15.75;;
31368;SDS011;18004;48.416;10.066;2022-12-20T10:15:13;31.40;;;16.83;;
31368;SDS011;18004;48.416;10.066;2022-12-20T10:23:20;24.92;;;15.32;;
31368;SDS011;18004;48.416;10.066;2022-12-20T10:25:52;28.20;;;15.30;;
31368;SDS011;18004;48.416;10.066;2022-12-20T10:28:25;27.20;;;14.23;;
31368;SDS011;18004;48.416;10.066;2022-12-20T10:31:02;26.52;;;13.65;;
31368;SDS011;18004;48.416;10.066;2022-12-20T10:33:36;24.85;;;13.20;;
31368;SDS011;18004;48.416;10.066;2022-12-20T10:38:48;27.60;;;12.98;;
31368;SDS011;18004;48.416;10.066;2022-12-20T10:41:19;23.27;;;12.27;;
31368;SDS011;18004;48.416;10.066;2022-12-20T10:46:37;24.08;;;12.07;;
31368;SDS011;18004;48.416;10.066;2022-12-20T10:49:38;25.70;;;12.88;;
31368;SDS011;18004;48.416;10.066;2022-12-20T10:52:07;21.90;;;13.48;;
31368;SDS011;18004;48.416;10.066;2022-12-20T10:54:38;23.92;;;15.63;;
31368;SDS011;18004;48.416;10.066;2022-12-20T10:57:22;26.15;;;12.38;;
31368;SDS011;18004;48.416;10.066;2022-12-20T10:59:58;30.70;;;12.60;;
31368;SDS011;18004;48.416;10.066;2022-12-20T11:05:09;29.45;;;12.57;;
31368;SDS011;18004;48.416;10.066;2022-12-20T11:10:20;26.95;;;14.10;;
31368;SDS011;18004;48.416;10.066;2022-12-20T11:12:58;27.80;;;13.75;;
31368;SDS011;18004;48.416;10.066;2022-12-20T11:15:27;24.23;;;11.60;;
31368;SDS011;18004;48.416;10.066;2022-12-20T11:28:46;18.80;;;10.10;;
31368;SDS011;18004;48.416;10.066;2022-12-20T11:45:09;16.77;;;8.88;;
31368;SDS011;18004;48.416;10.066;2022-12-20T11:50:44;16.15;;;8.55;;
31368;SDS011;18004;48.416;10.066;2022-12-20T11:56:07;17.65;;;9.20;;
31368;SDS011;18004;48.416;10.066;2022-12-20T11:58:44;18.25;;;8.80;;
31368;SDS011;18004;48.416;10.066;2022-12-20T12:01:30;22.52;;;8.85;;
31368;SDS011;18004;48.416;10.066;2022-12-20T12:04:16;16.23;;;8.55;;
31368;SDS011;18004;48.416;10.066;2022-12-20T12:12:01;19.88;;;11.18;;
31368;SDS011;18004;48.416;10.066;2022-12-20T12:17:06;13.63;;;9.38;;
31368;SDS011;18004;48.416;10.066;2022-12-20T12:19:39;15.57;;;9.95;;
31368;SDS011;18004;48.416;10.066;2022-12-20T12:22:14;18.33;;;9.40;;
31368;SDS011;18004;48.416;10.066;2022-12-20T12:24:46;15.90;;;9.10;;
31368;SDS011;18004;48.416;10.066;2022-12-20T12:27:23;29.27;;;13.80;;
31368;SDS011;18004;48.416;10.066;2022-12-20T12:29:52;23.73;;;13.07;;
31368;SDS011;18004;48.416;10.066;2022-12-20T12:32:25;25.63;;;10.55;;
31368;SDS011;18004;48.416;10.066;2022-12-20T12:46:00;16.13;;;9.82;;
31368;SDS011;18004;48.416;10.066;2022-12-20T12:51:53;16.33;;;9.35;;
31368;SDS011;18004;48.416;10.066;2022-12-20T12:57:17;15.27;;;8.68;;
31368;SDS011;18004;48.416;10.066;2022-12-20T13:09:53;14.25;;;9.18;;
31368;SDS011;18004;48.416;10.066;2022-12-20T13:20:37;16.30;;;9.82;;
31368;SDS011;18004;48.416;10.066;2022-12-20T13:25:33;14.30;;;8.77;;
31368;SDS011;18004;48.416;10.066;2022-12-20T13:30:41;18.88;;;9.40;;
31368;SDS011;18004;48.416;10.066;2022-12-20T13:49:33;15.18;;;8.77;;
31368;SDS011;18004;48.416;10.066;2022-12-20T13:52:06;16.38;;;8.48;;
31368;SDS011;18004;48.416;10.066;2022-12-20T13:54:41;17.42;;;10.40;;
31368;SDS011;18004;48.416;10.066;2022-12-20T13:57:14;16.17;;;8.25;;
31368;SDS011;18004;48.416;10.066;2022-12-20T13:59:48;13.40;;;8.30;;
31368;SDS011;18004;48.416;10.066;2022-12-20T14:02:19;18.98;;;8.80;;
31368;SDS011;18004;48.416;10.066;2022-12-20T14:04:58;18.10;;;8.77;;
31368;SDS011;18004;48.416;10.066;2022-12-20T14:07:38;19.73;;;10.10;;
31368;SDS011;18004;48.416;10.066;2022-12-20T14:10:19;17.05;;;10.10;;
31368;SDS011;18004;48.416;10.066;2022-12-20T14:12:48;22.08;;;10.80;;
31368;SDS011;18004;48.416;10.066;2022-12-20T14:15:22;17.67;;;10.43;;
31368;SDS011;18004;48.416;10.066;2022-12-20T14:17:55;17.23;;;8.90;;
31368;SDS011;18004;48.416;10.066;2022-12-20T14:20:22;14.90;;;8.32;;
31368;SDS011;18004;48.416;10.066;2022-12-20T14:22:54;15.43;;;9.13;;
31368;SDS011;18004;48.416;10.066;2022-12-20T14:25:36;14.98;;;8.63;;
31368;SDS011;18004;48.416;10.066;2022-12-20T14:30:46;22.25;;;9.23;;
31368;SDS011;18004;48.416;10.066;2022-12-20T14:33:18;25.48;;;10.57;;
31368;SDS011;18004;48.416;10.066;2022-12-20T14:35:49;17.02;;;8.90;;
31368;SDS011;18004;48.416;10.066;2022-12-20T14:38:20;19.92;;;9.43;;
31368;SDS011;18004;48.416;10.066;2022-12-20T14:40:47;14.35;;;8.50;;
31368;SDS011;18004;48.416;10.066;2022-12-20T14:43:27;23.58;;;10.85;;
31368;SDS011;18004;48.416;10.066;2022-12-20T14:46:14;15.05;;;8.45;;
31368;SDS011;18004;48.416;10.066;2022-12-20T14:48:46;20.80;;;12.82;;
31368;SDS011;18004;48.416;10.066;2022-12-20T14:51:18;14.48;;;8.52;;
31368;SDS011;18004;48.416;10.066;2022-12-20T14:53:46;21.20;;;9.82;;
31368;SDS011;18004;48.416;10.066;2022-12-20T14:56:18;16.38;;;9.68;;
31368;SDS011;18004;48.416;10.066;2022-12-20T14:58:46;20.65;;;9.63;;
31368;SDS011;18004;48.416;10.066;2022-12-20T15:01:25;13.95;;;9.13;;
31368;SDS011;18004;48.416;10.066;2022-12-20T15:03:55;14.57;;;8.50;;
31368;SDS011;18004;48.416;10.066;2022-12-20T15:09:12;13.40;;;8.95;;
31368;SDS011;18004;48.416;10.066;2022-12-20T15:11:38;16.75;;;9.00;;
31368;SDS011;18004;48.416;10.066;2022-12-20T15:17:01;19.23;;;9.68;;
31368;SDS011;18004;48.416;10.066;2022-12-20T15:19:33;18.98;;;9.43;;
31368;SDS011;18004;48.416;10.066;2022-12-20T15:21:58;21.05;;;9.55;;
31368;SDS011;18004;48.416;10.066;2022-12-20T15:24:25;17.08;;;10.50;;
31368;SDS011;18004;48.416;10.066;2022-12-20T15:26:52;17.90;;;10.00;;
31368;SDS011;18004;48.416;10.066;2022-12-20T15:29:25;23.92;;;10.88;;
31368;SDS011;18004;48.416;10.066;2022-12-20T15:31:57;24.33;;;11.43;;
31368;SDS011;18004;48.416;10.066;2022-12-20T15:34:36;17.52;;;9.25;;
31368;SDS011;18004;48.416;10.066;2022-12-20T15:37:03;23.25;;;10.77;;
31368;SDS011;18004;48.416;10.066;2022-12-20T15:39:30;27.55;;;14.02;;
31368;SDS011;18004;48.416;10.066;2022-12-20T15:42:00;38.35;;;16.35;;
31368;SDS011;18004;48.416;10.066;2022-12-20T15:44:29;21.38;;;11.45;;
31368;SDS011;18004;48.416;10.066;2022-12-20T15:46:55;29.88;;;14.57;;
31368;SDS011;18004;48.416;10.066;2022-12-20T15:49:25;31.70;;;17.13;;
31368;SDS011;18004;48.416;10.066;2022-12-20T15:51:54;28.42;;;14.50;;
31368;SDS011;18004;48.416;10.066;2022-12-20T15:54:27;26.02;;;14.38;;
31368;SDS011;18004;48.416;10.066;2022-12-20T15:56:56;28.98;;;13.25;;
31368;SDS011;18004;48.416;10.066;2022-12-20T15:59:31;27.90;;;14.27;;
31368;SDS011;18004;48.416;10.066;2022-12-20T16:01:57;26.98;;;12.77;;
31368;SDS011;18004;48.416;10.066;2022-12-20T16:04:24;26.05;;;12.90;;
31368;SDS011;18004;48.416;10.066;2022-12-20T16:06:50;30.20;;;15.68;;
31368;SDS011;18004;48.416;10.066;2022-12-20T16:09:17;28.63;;;14.35;;
31368;SDS011;18004;48.416;10.066;2022-12-20T16:11:44;28.83;;;14.57;;
31368;SDS011;18004;48.416;10.066;2022-12-20T16:14:17;26.17;;;12.93;;
31368;SDS011;18004;48.416;10.066;2022-12-20T16:16:45;20.65;;;11.25;;
31368;SDS011;18004;48.416;10.066;2022-12-20T16:19:12;26.55;;;11.32;;
31368;SDS011;18004;48.416;10.066;2022-12-20T16:21:45;23.35;;;12.82;;
31368;SDS011;18004;48.416;10.066;2022-12-20T16:24:16;24.45;;;11.82;;
31368;SDS011;18004;48.416;10.066;2022-12-20T16:26:43;22.88;;;12.48;;
31368;SDS011;18004;48.416;10.066;2022-12-20T16:29:09;23.55;;;11.07;;
31368;SDS011;18004;48.416;10.066;2022-12-20T16:31:37;42.95;;;18.67;;
31368;SDS011;18004;48.416;10.066;2022-12-20T16:34:13;18.70;;;11.88;;
31368;SDS011;18004;48.416;10.066;2022-12-20T16:36:41;17.23;;;10.10;;
31368;SDS011;18004;48.416;10.066;2022-12-20T16:39:08;18.52;;;11.55;;
31368;SDS011;18004;48.416;10.066;2022-12-20T16:41:34;17.95;;;9.88;;
31368;SDS011;18004;48.416;10.066;2022-12-20T16:44:01;17.75;;;10.63;;
31368;SDS011;18004;48.416;10.066;2022-12-20T16:46:28;19.48;;;11.30;;
31368;SDS011;18004;48.416;10.066;2022-12-20T16:48:56;18.88;;;11.50;;